Time;durP1;ratioP1;P1;durP2;ratioP2;P2;SDS_P1;SDS_P2;PMS_P1;PMS_P2;Temp;Humidity;BMP_temperature;BMP_pressure;BME280_temperature;BME280_humidity;BME280_pressure;Samples;Min_cycle;Max_cycle;Signal;HPM_P1;HPM_P2
2023/04/08 00:02:17;;;;;;;11.90;8.88;;;6.90;99.90;;;;;;5024272;28;20119;-71
2023/04/08 00:04:43;;;;;;;11.10;9.10;;;6.90;99.90;;;;;;5022013;28;20045;-71
2023/04/08 00:07:08;;;;;;;12.23;9.10;;;6.90;99.90;;;;;;5024419;28;20132;-71
2023/04/08 00:09:34;;;;;;;11.15;9.23;;;6.80;99.90;;;;;;5023850;28;20037;-71
2023/04/08 00:12:00;;;;;;;11.30;9.40;;;6.80;99.90;;;;;;5022285;28;20042;-72
2023/04/08 00:14:29;;;;;;;12.15;9.60;;;6.80;99.90;;;;;;5018592;28;20069;-71
2023/04/08 00:16:55;;;;;;;15.38;10.20;;;6.70;99.90;;;;;;5016691;28;20045;-72
2023/04/08 00:19:20;;;;;;;12.55;9.90;;;6.70;99.90;;;;;;5027616;28;20045;-71
2023/04/08 00:21:47;;;;;;;11.80;9.85;;;6.60;99.90;;;;;;5018013;28;20124;-71
2023/04/08 00:24:13;;;;;;;14.98;10.32;;;6.70;99.90;;;;;;5022872;28;20098;-71
2023/04/08 00:26:38;;;;;;;13.52;9.98;;;6.60;99.90;;;;;;5023730;28;20433;-71
2023/04/08 00:29:04;;;;;;;13.10;9.90;;;6.60;99.90;;;;;;5022459;28;20069;-71
2023/04/08 00:31:30;;;;;;;12.95;9.95;;;6.60;99.90;;;;;;4993711;28;20061;-71
2023/04/08 00:33:55;;;;;;;12.52;10.07;;;6.60;99.90;;;;;;5018163;28;20045;-71
2023/04/08 00:36:21;;;;;;;12.88;10.30;;;6.60;99.90;;;;;;5000625;28;20042;-70
2023/04/08 00:38:47;;;;;;;12.82;10.20;;;6.50;99.90;;;;;;5021147;28;20138;-71
2023/04/08 00:41:13;;;;;;;14.20;10.30;;;6.40;99.90;;;;;;5002940;28;20672;-71
2023/04/08 00:43:38;;;;;;;13.95;10.65;;;6.40;99.90;;;;;;5018989;28;20049;-71
2023/04/08 00:46:04;;;;;;;12.90;10.15;;;6.50;99.90;;;;;;5021732;28;20068;-71
2023/04/08 00:48:31;;;;;;;12.43;11.10;;;6.40;99.90;;;;;;5006667;28;20053;-71
2023/04/08 00:50:57;;;;;;;14.60;11.25;;;6.40;99.90;;;;;;5006688;28;20061;-71
2023/04/08 00:53:23;;;;;;;13.27;10.35;;;6.40;99.90;;;;;;5005121;28;20041;-71
2023/04/08 00:55:51;;;;;;;14.77;11.30;;;6.40;99.90;;;;;;5001757;28;20453;-71
2023/04/08 00:58:17;;;;;;;13.40;10.98;;;6.30;99.90;;;;;;5020982;28;20053;-71
2023/04/08 01:00:51;;;;;;;14.10;10.63;;;6.30;99.90;;;;;;5018027;28;20627;-71
2023/04/08 01:03:42;;;;;;;12.93;11.00;;;6.30;99.90;;;;;;5018168;28;20099;-71
2023/04/08 01:06:19;;;;;;;12.90;11.48;;;6.30;99.90;;;;;;5023280;28;20115;-71
2023/04/08 01:08:46;;;;;;;19.92;12.00;;;6.20;99.90;;;;;;5019676;28;20060;-70
2023/04/08 01:11:13;;;;;;;15.85;11.43;;;6.10;99.90;;;;;;5018382;28;20562;-71
2023/04/08 01:13:41;;;;;;;16.33;10.93;;;6.10;99.90;;;;;;5015709;28;20048;-71
2023/04/08 01:16:12;;;;;;;15.18;12.00;;;6.10;99.90;;;;;;5021734;28;20184;-71
2023/04/08 01:18:40;;;;;;;14.52;11.32;;;6.10;99.90;;;;;;5007101;28;20561;-71
2023/04/08 01:21:06;;;;;;;;;;;6.00;99.90;;;;;;5022469;28;20072;-71
2023/04/08 01:23:50;;;;;;;13.88;10.80;;;6.10;99.90;;;;;;5021477;28;19952;-71
2023/04/08 01:26:21;;;;;;;15.02;11.02;;;6.00;99.90;;;;;;5018865;28;20107;-71
2023/04/08 01:28:53;;;;;;;16.02;11.20;;;6.00;99.90;;;;;;5021758;28;20141;-71
2023/04/08 01:31:23;;;;;;;14.57;11.93;;;6.00;99.90;;;;;;5003014;28;20099;-71
2023/04/08 01:33:50;;;;;;;16.20;11.55;;;6.00;99.90;;;;;;5000117;28;20091;-71
2023/04/08 01:36:17;;;;;;;17.73;12.48;;;6.00;99.90;;;;;;5023185;28;20041;-71
2023/04/08 01:38:43;;;;;;;17.00;12.65;;;6.00;99.90;;;;;;5022288;28;20037;-71
2023/04/08 01:41:10;;;;;;;16.60;12.25;;;5.90;99.90;;;;;;5023094;28;20038;-71
2023/04/08 01:43:43;;;;;;;16.40;12.13;;;6.00;99.90;;;;;;5022288;28;20085;-71
2023/04/08 01:46:11;;;;;;;16.17;12.10;;;5.90;99.90;;;;;;5001143;28;20050;-71
2023/04/08 01:48:37;;;;;;;;;;;5.90;99.90;;;;;;5000577;28;20054;-71
2023/04/08 01:51:05;;;;;;;14.65;12.20;;;5.90;99.90;;;;;;5020420;28;20442;-71
2023/04/08 01:53:31;;;;;;;16.60;12.82;;;5.80;99.90;;;;;;5019226;28;20411;-71
2023/04/08 01:56:10;;;;;;;15.70;12.80;;;5.80;99.90;;;;;;5020280;28;20044;-71
2023/04/08 01:58:49;;;;;;;17.48;13.23;;;5.80;99.90;;;;;;5026524;28;20051;-71
2023/04/08 02:01:19;;;;;;;14.73;12.52;;;5.70;99.90;;;;;;5023242;28;20033;-70
2023/04/08 02:03:46;;;;;;;16.52;13.25;;;5.70;99.90;;;;;;5016215;28;20051;-71
2023/04/08 02:06:12;;;;;;;18.50;13.27;;;5.70;99.90;;;;;;5025143;28;20391;-71
2023/04/08 02:08:38;;;;;;;17.45;12.70;;;5.70;99.90;;;;;;4999831;28;20485;-71
2023/04/08 02:11:03;;;;;;;18.55;14.27;;;5.70;99.90;;;;;;5011158;28;20495;-71
2023/04/08 02:13:33;;;;;;;14.63;13.02;;;5.60;99.90;;;;;;4996843;28;20042;-70
2023/04/08 02:16:08;;;;;;;16.60;13.40;;;5.50;99.90;;;;;;5017803;28;20049;-71
2023/04/08 02:18:44;;;;;;;16.20;13.40;;;5.50;99.90;;;;;;5019038;28;20136;-71
2023/04/08 02:21:14;;;;;;;18.33;13.93;;;5.40;99.90;;;;;;5002483;28;20396;-71
2023/04/08 02:23:44;;;;;;;16.40;13.73;;;5.40;99.90;;;;;;5020690;28;20067;-71
2023/04/08 02:26:18;;;;;;;18.65;13.50;;;5.40;99.90;;;;;;5018873;28;20037;-71
2023/04/08 02:28:47;;;;;;;19.52;14.32;;;5.40;99.90;;;;;;5020566;28;20041;-71
2023/04/08 02:31:13;;;;;;;18.45;14.55;;;5.30;99.90;;;;;;5002992;28;20049;-71
2023/04/08 02:33:40;;;;;;;14.73;13.10;;;5.30;99.90;;;;;;5003878;28;20046;-71
2023/04/08 02:36:07;;;;;;;17.60;13.60;;;5.30;99.90;;;;;;5012339;28;20928;-71
2023/04/08 02:38:33;;;;;;;18.83;13.77;;;5.30;99.90;;;;;;5003098;28;20081;-71
2023/04/08 02:40:58;;;;;;;18.35;14.20;;;5.30;99.90;;;;;;5017847;28;20085;-71
2023/04/08 02:43:31;;;;;;;16.67;13.57;;;5.30;99.90;;;;;;5017197;28;20397;-71
2023/04/08 02:46:03;;;;;;;19.85;14.73;;;5.20;99.90;;;;;;5012913;28;20073;-71
2023/04/08 02:48:30;;;;;;;17.50;13.93;;;5.30;99.90;;;;;;5016228;28;20053;-71
2023/04/08 02:51:02;;;;;;;21.48;14.95;;;5.20;99.90;;;;;;5018576;28;20409;-71
2023/04/08 02:53:30;;;;;;;18.58;14.40;;;5.20;99.90;;;;;;5017786;28;20045;-71
2023/04/08 02:55:56;;;;;;;20.27;15.23;;;5.20;99.90;;;;;;5018507;28;20045;-70
2023/04/08 02:58:21;;;;;;;19.00;14.95;;;5.20;99.90;;;;;;4998415;28;20045;-71
2023/04/08 03:00:47;;;;;;;19.33;16.35;;;5.20;99.90;;;;;;5016795;28;20048;-71
2023/04/08 03:03:13;;;;;;;19.00;14.95;;;5.20;99.90;;;;;;5017039;28;20037;-71
2023/04/08 03:05:38;;;;;;;20.42;16.05;;;5.10;99.90;;;;;;5000041;28;20041;-71
2023/04/08 03:08:05;;;;;;;19.58;15.93;;;5.10;99.90;;;;;;5011975;28;20041;-71
2023/04/08 03:10:31;;;;;;;20.77;15.65;;;5.10;99.90;;;;;;5005438;28;20202;-71
2023/04/08 03:12:56;;;;;;;19.15;16.50;;;5.20;99.90;;;;;;5022537;28;20417;-71
2023/04/08 03:15:28;;;;;;;18.17;15.13;;;5.10;99.90;;;;;;5017957;28;20046;-70
2023/04/08 03:17:56;;;;;;;20.95;16.10;;;5.10;99.90;;;;;;5001627;28;20491;-71
2023/04/08 03:20:22;;;;;;;18.05;15.82;;;5.10;99.90;;;;;;5019824;28;20056;-71
2023/04/08 03:22:47;;;;;;;20.67;16.27;;;5.00;99.90;;;;;;5017575;28;20077;-71
2023/04/08 03:25:13;;;;;;;20.45;17.30;;;5.00;99.90;;;;;;5013894;28;20616;-71
2023/04/08 03:27:39;;;;;;;18.67;15.63;;;5.00;99.90;;;;;;5021474;28;20069;-71
2023/04/08 03:30:05;;;;;;;19.42;16.52;;;5.00;99.90;;;;;;5024293;28;20055;-71
2023/04/08 03:32:31;;;;;;;20.88;17.58;;;5.00;99.90;;;;;;5000091;28;20489;-71
2023/04/08 03:34:57;;;;;;;23.23;17.17;;;5.00;99.90;;;;;;5016774;28;20049;-71
2023/04/08 03:37:23;;;;;;;23.25;16.83;;;5.00;99.90;;;;;;5018564;28;20048;-70
2023/04/08 03:39:48;;;;;;;20.73;18.25;;;5.00;99.90;;;;;;5017567;28;20099;-71
2023/04/08 03:42:17;;;;;;;21.77;17.17;;;5.00;99.90;;;;;;5018780;28;20060;-71
2023/04/08 03:44:46;;;;;;;22.08;19.02;;;5.00;99.90;;;;;;4999347;28;20054;-71
2023/04/08 03:47:11;;;;;;;22.92;18.33;;;5.00;99.90;;;;;;5016227;28;20041;-71
2023/04/08 03:49:39;;;;;;;20.42;17.65;;;5.00;99.90;;;;;;5017492;28;20038;-71
2023/04/08 03:52:06;;;;;;;24.38;18.40;;;5.00;99.90;;;;;;4996070;28;20049;-70
2023/04/08 03:54:32;;;;;;;23.40;18.67;;;5.10;99.90;;;;;;5009454;28;20038;-71
2023/04/08 03:56:57;;;;;;;22.90;19.63;;;5.10;99.90;;;;;;5016404;28;20088;-70
2023/04/08 03:59:23;;;;;;;23.02;19.45;;;5.10;99.90;;;;;;5008431;28;20038;-70
2023/04/08 04:01:50;;;;;;;23.77;20.23;;;5.10;99.90;;;;;;5013338;28;20107;-71
2023/04/08 04:04:19;;;;;;;24.15;19.55;;;5.10;99.90;;;;;;5017639;28;20041;-71
2023/04/08 04:06:45;;;;;;;23.00;20.45;;;5.10;99.90;;;;;;4996393;28;20053;-71
2023/04/08 04:09:10;;;;;;;24.77;20.08;;;5.10;99.90;;;;;;5000161;28;20041;-71
2023/04/08 04:11:36;;;;;;;23.33;19.95;;;5.10;99.90;;;;;;5016698;28;20049;-71
2023/04/08 04:14:02;;;;;;;26.08;20.90;;;5.10;99.90;;;;;;5019655;28;20038;-71
2023/04/08 04:16:28;;;;;;;25.77;21.10;;;5.10;99.90;;;;;;5001113;28;20049;-71
2023/04/08 04:18:54;;;;;;;26.42;21.35;;;5.10;99.90;;;;;;5014118;28;20426;-70
2023/04/08 04:21:20;;;;;;;27.67;22.42;;;5.10;99.90;;;;;;5021100;28;20127;-71
2023/04/08 04:23:45;;;;;;;26.38;22.83;;;5.10;99.90;;;;;;5002478;28;20071;-71
2023/04/08 04:26:14;;;;;;;26.23;22.00;;;5.10;99.90;;;;;;4997940;28;20068;-71
2023/04/08 04:28:40;;;;;;;28.83;22.50;;;5.10;99.90;;;;;;5014334;28;20060;-71
2023/04/08 04:31:06;;;;;;;29.42;22.30;;;5.20;99.90;;;;;;5016707;28;20029;-71
2023/04/08 04:33:31;;;;;;;28.70;23.15;;;5.10;99.90;;;;;;5019282;28;20092;-70
2023/04/08 04:35:57;;;;;;;26.15;22.92;;;5.10;99.90;;;;;;5017466;28;20128;-70
2023/04/08 04:38:22;;;;;;;27.17;22.15;;;5.20;99.90;;;;;;4999288;28;20057;-70
2023/04/08 04:40:48;;;;;;;27.42;22.80;;;5.00;99.90;;;;;;5002875;28;20049;-71
2023/04/08 04:43:14;;;;;;;26.65;22.92;;;5.20;99.90;;;;;;5001461;28;20049;-71
2023/04/08 04:45:40;;;;;;;28.02;22.73;;;5.20;99.90;;;;;;4999305;28;20045;-70
2023/04/08 04:48:05;;;;;;;28.17;22.98;;;5.10;99.90;;;;;;5020296;28;20100;-71
2023/04/08 04:50:31;;;;;;;27.92;22.90;;;5.10;99.90;;;;;;5022395;28;20041;-71
2023/04/08 04:52:57;;;;;;;29.77;23.83;;;5.20;99.90;;;;;;5018388;28;20088;-71
2023/04/08 04:55:22;;;;;;;29.05;23.75;;;5.20;99.90;;;;;;5003395;28;20038;-71
2023/04/08 04:57:48;;;;;;;30.50;24.15;;;5.20;99.90;;;;;;5017630;28;20037;-70
2023/04/08 05:00:15;;;;;;;29.23;24.58;;;5.10;99.90;;;;;;5021066;28;20672;-71
2023/04/08 05:02:41;;;;;;;30.52;23.83;;;5.20;99.90;;;;;;5018165;28;20048;-71
2023/04/08 05:05:07;;;;;;;29.05;23.67;;;5.20;99.90;;;;;;5006584;28;20045;-70
2023/04/08 05:07:37;;;;;;;28.88;23.95;;;5.20;99.90;;;;;;5023511;28;20136;-71
2023/04/08 05:10:04;;;;;;;30.42;23.83;;;5.20;99.90;;;;;;5019085;28;20570;-71
2023/04/08 05:12:29;;;;;;;29.57;23.40;;;5.20;99.90;;;;;;5018175;28;20034;-70
2023/04/08 05:14:58;;;;;;;31.60;25.48;;;5.20;99.90;;;;;;5018696;28;20223;-70
2023/04/08 05:17:24;;;;;;;31.70;24.65;;;5.20;99.90;;;;;;4998283;28;20143;-70
2023/04/08 05:19:52;;;;;;;29.63;22.85;;;5.20;99.90;;;;;;5013488;28;20073;-71
2023/04/08 05:22:18;;;;;;;29.48;24.48;;;5.20;99.90;;;;;;5000307;28;20132;-71
2023/04/08 05:24:44;;;;;;;30.73;24.75;;;5.20;99.90;;;;;;5019041;28;20133;-71
2023/04/08 05:27:09;;;;;;;29.15;23.98;;;5.20;99.90;;;;;;4999055;28;20046;-70
2023/04/08 05:29:35;;;;;;;28.95;24.67;;;5.20;99.90;;;;;;5026358;28;20048;-71
2023/04/08 05:32:01;;;;;;;33.65;25.75;;;5.20;99.90;;;;;;5014287;28;20156;-70
2023/04/08 05:34:26;;;;;;;33.63;25.60;;;5.20;99.90;;;;;;5015492;28;20152;-70
2023/04/08 05:36:52;;;;;;;30.58;25.13;;;5.20;99.90;;;;;;5019742;28;20055;-71
2023/04/08 05:39:19;;;;;;;30.52;24.50;;;5.20;99.90;;;;;;5018879;28;20045;-71
2023/04/08 05:41:45;;;;;;;30.43;25.00;;;5.20;99.90;;;;;;5022661;28;20057;-70
2023/04/08 05:44:12;;;;;;;33.28;26.38;;;5.20;99.90;;;;;;5003530;28;20037;-70
2023/04/08 05:46:41;;;;;;;30.77;24.45;;;5.20;99.90;;;;;;5019606;28;20053;-70
2023/04/08 05:49:06;;;;;;;31.10;26.13;;;5.20;99.90;;;;;;5019501;28;20038;-71
2023/04/08 05:51:32;;;;;;;30.67;24.98;;;5.20;99.90;;;;;;5018618;28;20096;-70
2023/04/08 05:53:58;;;;;;;33.38;26.35;;;5.30;99.90;;;;;;5018563;28;20071;-71
2023/04/08 05:56:24;;;;;;;34.55;27.65;;;5.30;99.90;;;;;;5003859;28;20537;-70
2023/04/08 05:58:50;;;;;;;36.13;29.65;;;5.40;99.90;;;;;;5025049;28;20060;-71
2023/04/08 06:01:15;;;;;;;34.22;28.98;;;5.40;99.90;;;;;;5019877;28;20042;-71
2023/04/08 06:03:41;;;;;;;34.42;27.67;;;5.50;99.90;;;;;;5019845;28;20041;-71
2023/04/08 06:06:10;;;;;;;34.08;28.05;;;5.50;99.90;;;;;;4991914;28;20048;-72
2023/04/08 06:08:36;;;;;;;34.45;26.98;;;5.60;99.90;;;;;;5018611;28;20041;-70
2023/04/08 06:11:04;;;;;;;35.70;27.98;;;5.60;99.90;;;;;;5011114;28;20488;-70
2023/04/08 06:13:29;;;;;;;;;;;5.70;99.90;;;;;;4990232;28;20099;-70
2023/04/08 06:15:58;;;;;;;33.45;27.45;;;5.70;99.90;;;;;;5024868;28;19928;-70
2023/04/08 06:18:24;;;;;;;37.38;27.55;;;5.80;99.90;;;;;;5023960;28;20088;-71
2023/04/08 06:20:49;;;;;;;34.47;27.38;;;5.80;99.90;;;;;;5007160;28;20075;-71
2023/04/08 06:23:15;;;;;;;37.33;27.88;;;5.90;99.90;;;;;;5026414;28;20144;-70
2023/04/08 06:25:41;;;;;;;34.97;27.48;;;6.00;99.90;;;;;;5005505;28;20124;-71
2023/04/08 06:28:07;;;;;;;36.95;28.08;;;6.00;99.90;;;;;;5022150;28;20041;-70
2023/04/08 06:30:32;;;;;;;39.90;30.20;;;6.10;99.90;;;;;;5018052;28;20107;-70
2023/04/08 06:32:58;;;;;;;33.67;27.38;;;6.20;99.90;;;;;;5015647;28;20973;-70
2023/04/08 06:35:23;;;;;;;41.45;28.80;;;6.20;99.90;;;;;;5022730;28;20554;-70
2023/04/08 06:37:49;;;;;;;37.38;28.63;;;6.30;99.90;;;;;;5019902;28;20099;-70
2023/04/08 06:40:15;;;;;;;36.78;27.92;;;6.30;99.90;;;;;;5024445;28;20125;-70
2023/04/08 06:42:43;;;;;;;32.33;25.85;;;6.40;99.90;;;;;;5020863;28;20069;-70
2023/04/08 06:45:10;;;;;;;31.48;27.08;;;6.40;99.90;;;;;;5019190;28;20127;-70
2023/04/08 06:47:35;;;;;;;32.53;25.83;;;6.40;99.90;;;;;;5003253;28;20523;-69
2023/04/08 06:50:01;;;;;;;36.15;28.95;;;6.40;99.90;;;;;;5023148;28;20121;-69
2023/04/08 06:52:27;;;;;;;34.47;26.85;;;6.50;99.90;;;;;;5023559;28;20120;-70
2023/04/08 06:54:52;;;;;;;36.80;27.25;;;6.60;99.90;;;;;;5017883;28;20038;-70
2023/04/08 06:57:18;;;;;;;35.38;26.13;;;6.50;99.90;;;;;;5021539;28;20059;-69
2023/04/08 06:59:43;;;;;;;40.10;29.42;;;6.60;99.90;;;;;;5015825;28;20133;-70
2023/04/08 07:02:09;;;;;;;33.33;27.88;;;6.60;99.90;;;;;;4997146;28;20050;-70
2023/04/08 07:04:35;;;;;;;36.75;28.27;;;6.60;99.90;;;;;;5018292;28;20046;-70
2023/04/08 07:07:00;;;;;;;36.75;27.60;;;6.70;99.90;;;;;;5021874;28;20033;-69
2023/04/08 07:09:26;;;;;;;35.42;27.67;;;6.70;99.90;;;;;;5021693;28;20115;-70
2023/04/08 07:11:51;;;;;;;34.17;27.15;;;6.70;99.90;;;;;;5017868;28;20136;-70
2023/04/08 07:14:20;;;;;;;36.72;28.95;;;6.70;99.90;;;;;;5012815;28;20038;-70
2023/04/08 07:16:45;;;;;;;38.10;28.75;;;6.70;99.90;;;;;;5014315;28;20051;-70
2023/04/08 07:19:11;;;;;;;36.67;27.58;;;6.70;99.90;;;;;;5019030;28;20053;-69
2023/04/08 07:21:37;;;;;;;34.20;28.02;;;6.70;99.90;;;;;;5022903;28;20045;-70
2023/04/08 07:24:02;;;;;;;37.15;28.08;;;6.80;99.90;;;;;;5007926;28;20046;-70
2023/04/08 07:26:28;;;;;;;36.05;28.30;;;6.80;99.90;;;;;;5018617;28;20054;-70
2023/04/08 07:28:56;;;;;;;35.42;28.30;;;6.90;99.90;;;;;;4997798;28;20086;-70
2023/04/08 07:31:23;;;;;;;41.42;28.80;;;6.90;99.90;;;;;;5019442;28;20080;-71
2023/04/08 07:33:51;;;;;;;35.58;28.15;;;7.00;99.90;;;;;;4999306;28;20038;-70
2023/04/08 07:36:17;;;;;;;37.53;28.02;;;7.10;99.90;;;;;;5018556;28;20094;-71
2023/04/08 07:38:43;;;;;;;37.83;29.13;;;7.10;99.90;;;;;;5015120;28;20497;-70
2023/04/08 07:41:08;;;;;;;37.53;28.85;;;7.10;99.90;;;;;;4994699;28;20104;-70
2023/04/08 07:43:35;;;;;;;39.53;28.60;;;7.10;99.90;;;;;;5022703;28;20127;-71
2023/04/08 07:46:02;;;;;;;37.20;28.02;;;7.20;99.90;;;;;;5020831;28;20041;-71
2023/04/08 07:48:29;;;;;;;37.73;27.73;;;7.20;99.90;;;;;;5007531;28;20045;-70
2023/04/08 07:50:55;;;;;;;35.03;27.67;;;7.20;99.90;;;;;;5007093;28;20069;-70
2023/04/08 07:53:22;;;;;;;35.88;28.00;;;7.10;99.90;;;;;;5008277;28;20042;-71
2023/04/08 07:55:48;;;;;;;35.40;27.95;;;7.20;99.90;;;;;;4989750;28;20686;-71
2023/04/08 07:58:13;;;;;;;36.22;28.02;;;7.20;99.90;;;;;;5017668;28;20049;-71
2023/04/08 08:00:39;;;;;;;33.08;26.55;;;7.30;99.90;;;;;;4991890;28;20068;-71
2023/04/08 08:03:05;;;;;;;33.72;27.77;;;7.40;99.90;;;;;;5017984;28;20064;-71
2023/04/08 08:05:31;;;;;;;33.63;26.73;;;7.50;99.90;;;;;;5018447;28;20034;-68
2023/04/08 08:07:56;;;;;;;34.70;27.45;;;7.60;99.90;;;;;;5004818;28;20045;-71
2023/04/08 08:10:22;;;;;;;30.20;25.25;;;7.80;99.90;;;;;;4999943;28;20041;-71
2023/04/08 08:12:48;;;;;;;30.58;25.55;;;7.90;99.90;;;;;;4988866;28;20057;-71
2023/04/08 08:15:13;;;;;;;31.00;24.98;;;7.90;99.90;;;;;;5003912;28;20077;-71
2023/04/08 08:17:39;;;;;;;28.90;24.52;;;8.00;99.90;;;;;;5020585;28;20050;-71
2023/04/08 08:20:08;;;;;;;27.35;22.85;;;8.00;99.90;;;;;;5018966;28;20057;-71
2023/04/08 08:22:33;;;;;;;28.35;23.20;;;8.00;99.90;;;;;;5021258;28;20096;-71
2023/04/08 08:24:59;;;;;;;28.30;23.20;;;8.00;99.90;;;;;;5005839;28;20037;-70
2023/04/08 08:27:27;;;;;;;26.92;22.13;;;7.90;99.90;;;;;;5020659;28;20065;-69
2023/04/08 08:29:53;;;;;;;25.70;22.20;;;7.90;99.90;;;;;;5029531;28;20083;-70
2023/04/08 08:32:18;;;;;;;26.30;22.25;;;7.90;99.90;;;;;;5001380;28;20121;-72
2023/04/08 08:34:44;;;;;;;27.67;22.77;;;7.90;99.90;;;;;;5016169;28;20053;-71
2023/04/08 08:37:10;;;;;;;25.20;21.73;;;8.00;99.90;;;;;;5022922;28;20044;-70
2023/04/08 08:39:35;;;;;;;26.45;22.00;;;8.00;99.90;;;;;;5021618;28;20076;-71
2023/04/08 08:42:01;;;;;;;26.17;21.55;;;8.10;99.90;;;;;;5024373;28;20053;-70
2023/04/08 08:44:28;;;;;;;25.77;22.98;;;8.10;99.90;;;;;;5012550;28;20133;-71
2023/04/08 08:46:54;;;;;;;23.95;19.85;;;8.10;99.90;;;;;;5029098;28;20052;-71
2023/04/08 08:49:19;;;;;;;24.17;20.75;;;8.10;99.90;;;;;;5020219;28;20049;-71
2023/04/08 08:51:49;;;;;;;24.48;20.70;;;8.10;99.90;;;;;;5021690;28;20448;-71
2023/04/08 08:54:15;;;;;;;24.65;20.27;;;8.10;99.90;;;;;;5018329;28;20084;-71
2023/04/08 08:56:42;;;;;;;25.48;21.75;;;8.20;99.90;;;;;;5009098;28;20050;-72
2023/04/08 08:59:08;;;;;;;23.25;19.73;;;8.20;99.90;;;;;;5004536;28;20041;-73
2023/04/08 09:01:40;;;;;;;23.27;20.20;;;8.20;99.90;;;;;;5020315;28;20157;-71
2023/04/08 09:04:21;;;;;;;23.90;19.85;;;8.30;99.90;;;;;;5019731;28;20041;-72
2023/04/08 09:06:51;;;;;;;21.65;18.73;;;8.30;99.90;;;;;;5002043;28;20084;-72
2023/04/08 09:09:20;;;;;;;22.35;19.92;;;8.30;99.90;;;;;;5020847;28;20064;-72
2023/04/08 09:11:46;;;;;;;22.33;18.83;;;8.30;99.90;;;;;;5021843;28;20378;-72
2023/04/08 09:14:22;;;;;;;22.02;19.13;;;8.30;99.90;;;;;;4996417;28;20084;-71
2023/04/08 09:16:49;;;;;;;22.65;19.90;;;8.30;99.90;;;;;;5020328;28;20080;-71
2023/04/08 09:19:18;;;;;;;23.23;20.75;;;8.30;99.90;;;;;;4999981;28;20148;-72
2023/04/08 09:21:43;;;;;;;21.80;19.50;;;8.40;99.90;;;;;;5009259;28;20091;-73
2023/04/08 09:24:26;;;;;;;22.52;20.13;;;8.40;99.90;;;;;;5016431;28;21836;-74
2023/04/08 09:26:58;;;;;;;23.35;20.00;;;8.50;99.90;;;;;;5021358;28;20104;-73
2023/04/08 09:29:27;;;;;;;23.55;21.00;;;8.50;99.90;;;;;;5010099;28;20051;-73
2023/04/08 09:31:58;;;;;;;21.70;19.42;;;8.50;99.90;;;;;;5018068;28;20049;-73
2023/04/08 09:34:24;;;;;;;22.15;19.75;;;8.60;99.90;;;;;;5027638;28;20086;-72
2023/04/08 09:36:51;;;;;;;23.58;21.15;;;8.60;99.90;;;;;;5007022;28;20045;-74
2023/04/08 09:39:18;;;;;;;23.05;19.90;;;8.60;99.90;;;;;;5025803;28;20044;-74
2023/04/08 09:41:45;;;;;;;24.15;21.55;;;8.60;99.90;;;;;;5017120;28;20046;-72
2023/04/08 09:44:11;;;;;;;23.60;21.10;;;8.60;99.90;;;;;;5028968;28;20137;-72
2023/04/08 09:46:49;;;;;;;23.02;20.63;;;8.70;99.90;;;;;;5023090;28;20532;-72
2023/04/08 09:49:32;;;;;;;25.02;21.58;;;8.50;99.90;;;;;;5011411;28;20077;-73
2023/04/08 09:52:07;;;;;;;23.80;21.38;;;8.60;99.90;;;;;;5000185;28;20551;-73
2023/04/08 09:55:12;;;;;;;23.75;21.25;;;8.60;99.90;;;;;;5004001;28;20054;-73
2023/04/08 09:57:43;;;;;;;23.30;20.88;;;8.60;99.90;;;;;;4945424;28;20043;-73
2023/04/08 10:00:16;;;;;;;24.77;22.10;;;8.60;99.90;;;;;;4962724;28;20086;-73
2023/04/08 10:02:53;;;;;;;25.75;22.65;;;8.70;99.90;;;;;;4978809;28;20092;-73
2023/04/08 10:05:20;;;;;;;24.42;21.77;;;8.70;99.90;;;;;;5022149;28;20076;-72
2023/04/08 10:07:46;;;;;;;25.52;22.33;;;8.90;99.90;;;;;;5020198;28;20045;-72
2023/04/08 10:10:12;;;;;;;26.70;24.00;;;8.90;99.90;;;;;;5023423;28;20485;-71
2023/04/08 10:12:39;;;;;;;25.38;22.70;;;8.90;99.90;;;;;;5014657;28;20057;-71
2023/04/08 10:15:26;;;;;;;24.73;21.87;;;8.90;99.90;;;;;;5019368;28;20050;-71
2023/04/08 10:18:04;;;;;;;25.45;22.85;;;8.90;99.90;;;;;;4995423;28;20312;-72
2023/04/08 10:20:35;;;;;;;25.52;22.88;;;9.00;99.90;;;;;;5018839;28;20102;-72
2023/04/08 10:23:03;;;;;;;25.05;22.33;;;9.10;99.90;;;;;;5016958;28;20044;-74
2023/04/08 10:25:30;;;;;;;24.63;22.13;;;9.00;99.90;;;;;;5003186;28;20041;-77
2023/04/08 10:27:57;;;;;;;26.83;23.10;;;9.00;99.90;;;;;;5019291;28;20407;-72
2023/04/08 10:30:30;;;;;;;24.05;21.58;;;9.00;99.90;;;;;;5011684;28;20056;-71
2023/04/08 10:33:00;;;;;;;24.10;21.67;;;9.10;99.90;;;;;;4999729;28;20058;-71
2023/04/08 10:35:30;;;;;;;23.73;21.30;;;9.10;99.90;;;;;;4994171;28;20092;-71
2023/04/08 10:37:57;;;;;;;23.27;20.77;;;9.20;99.90;;;;;;5000266;28;20455;-70
2023/04/08 10:40:23;;;;;;;23.15;20.75;;;9.20;99.90;;;;;;5019276;28;20061;-71
2023/04/08 10:42:59;;;;;;;24.17;21.67;;;9.20;99.90;;;;;;5001485;28;20073;-71
2023/04/08 10:45:25;;;;;;;23.23;20.85;;;9.20;99.90;;;;;;5013994;28;20041;-69
2023/04/08 10:47:50;;;;;;;22.75;20.42;;;9.30;99.90;;;;;;5015323;28;20048;-68
2023/04/08 10:50:18;;;;;;;23.30;20.95;;;9.30;99.90;;;;;;5003400;28;20485;-70
2023/04/08 10:52:47;;;;;;;;;;;9.40;99.90;;;;;;5002502;28;20053;-71
2023/04/08 10:55:13;;;;;;;21.25;19.05;;;9.40;99.90;;;;;;5008071;28;19999;-71
2023/04/08 10:57:42;;;;;;;23.27;20.83;;;9.50;99.90;;;;;;5021894;28;20132;-70
2023/04/08 11:00:17;;;;;;;23.25;20.73;;;9.60;99.90;;;;;;5021183;28;20041;-70
2023/04/08 11:02:43;;;;;;;22.50;20.10;;;9.60;99.90;;;;;;5022781;28;20041;-68
2023/04/08 11:05:09;;;;;;;22.50;20.20;;;9.70;99.90;;;;;;5020925;28;20466;-73
2023/04/08 11:07:41;;;;;;;22.65;20.25;;;9.70;99.90;;;;;;5010441;28;20046;-69
2023/04/08 11:10:10;;;;;;;22.42;20.13;;;9.70;99.90;;;;;;4995809;28;20045;-69
2023/04/08 11:12:37;;;;;;;23.10;20.60;;;9.70;99.90;;;;;;5001541;28;20049;-70
2023/04/08 11:15:09;;;;;;;23.90;21.42;;;9.70;99.90;;;;;;5014598;28;20100;-70
2023/04/08 11:17:38;;;;;;;23.73;20.92;;;9.60;99.90;;;;;;4989937;28;20050;-69
2023/04/08 11:20:05;;;;;;;24.92;21.85;;;9.60;99.90;;;;;;4990635;28;20057;-69
2023/04/08 11:22:33;;;;;;;21.97;19.63;;;9.60;99.90;;;;;;4989426;28;20057;-69
2023/04/08 11:25:00;;;;;;;20.77;18.58;;;9.60;99.90;;;;;;4994101;28;20057;-69
2023/04/08 11:27:26;;;;;;;23.20;20.70;;;9.60;99.90;;;;;;5019478;28;20497;-70
2023/04/08 11:29:55;;;;;;;21.25;19.02;;;9.50;99.90;;;;;;5011918;28;20054;-70
2023/04/08 11:32:22;;;;;;;22.40;20.02;;;9.50;99.90;;;;;;5017786;28;20042;-69
2023/04/08 11:34:48;;;;;;;21.95;19.65;;;9.60;99.90;;;;;;5007522;28;20072;-69
2023/04/08 11:37:14;;;;;;;21.20;18.95;;;9.70;99.90;;;;;;4989793;28;20049;-70
2023/04/08 11:39:44;;;;;;;21.92;19.63;;;9.70;99.90;;;;;;5007693;28;20034;-69
2023/04/08 11:42:26;;;;;;;23.90;20.77;;;9.70;99.90;;;;;;4989542;28;20050;-70
2023/04/08 11:44:51;;;;;;;22.77;20.30;;;9.70;99.90;;;;;;5013237;28;20046;-70
2023/04/08 11:47:17;;;;;;;22.13;19.75;;;9.60;99.90;;;;;;5010006;28;20096;-70
2023/04/08 11:49:44;;;;;;;22.10;19.73;;;9.60;99.90;;;;;;4992196;28;20046;-70
2023/04/08 11:52:10;;;;;;;21.85;19.55;;;9.60;99.90;;;;;;5026655;28;20477;-70
2023/04/08 11:54:42;;;;;;;21.70;18.95;;;9.60;99.90;;;;;;4996045;28;20046;-70
2023/04/08 11:57:11;;;;;;;22.30;19.95;;;9.70;99.90;;;;;;5004314;28;20045;-70
2023/04/08 11:59:37;;;;;;;21.88;19.52;;;9.70;99.90;;;;;;5003216;28;20111;-70
2023/04/08 12:02:02;;;;;;;22.40;20.13;;;9.70;99.90;;;;;;5002371;28;20401;-70
2023/04/08 12:04:29;;;;;;;24.23;21.65;;;9.70;99.90;;;;;;5014322;28;20125;-70
2023/04/08 12:06:55;;;;;;;24.08;21.25;;;9.60;99.90;;;;;;5020173;28;20487;-70
2023/04/08 12:09:21;;;;;;;22.50;20.10;;;9.60;99.90;;;;;;5021456;28;20049;-70
2023/04/08 12:11:46;;;;;;;21.63;19.13;;;9.60;99.90;;;;;;5010484;28;20049;-70
2023/04/08 12:14:12;;;;;;;23.30;20.75;;;9.60;99.90;;;;;;5021138;28;20053;-72
2023/04/08 12:16:38;;;;;;;23.60;21.10;;;9.60;99.90;;;;;;4997977;28;20049;-69
2023/04/08 12:19:04;;;;;;;23.83;21.27;;;9.50;99.90;;;;;;5015881;28;20508;-72
2023/04/08 12:21:31;;;;;;;22.65;20.10;;;9.50;99.90;;;;;;5017295;28;20065;-72
2023/04/08 12:23:57;;;;;;;24.38;21.45;;;9.50;99.90;;;;;;5022673;28;20512;-72
2023/04/08 12:26:23;;;;;;;26.85;22.83;;;9.60;99.90;;;;;;5025065;28;20038;-71
2023/04/08 12:28:48;;;;;;;27.23;23.08;;;9.50;99.90;;;;;;4998691;28;20050;-71
2023/04/08 12:31:14;;;;;;;27.45;24.20;;;9.60;99.90;;;;;;5001194;28;20049;-72
2023/04/08 12:33:40;;;;;;;27.42;24.20;;;9.60;99.90;;;;;;5012621;28;20065;-72
2023/04/08 12:36:05;;;;;;;30.20;24.27;;;9.60;99.90;;;;;;5010879;28;20496;-71
2023/04/08 12:38:32;;;;;;;27.55;23.58;;;9.60;99.90;;;;;;4995459;28;20053;-72
2023/04/08 12:40:58;;;;;;;26.42;23.52;;;9.60;99.90;;;;;;5016936;28;20052;-72